Impacts TAF Board
For situational awareness. Not to be used for flight planning purposes.
IDs:

KSTL - St Louis/Lambert Int, MO, US

Issued at 1131 UTC 05 Apr 2020
Updated at 1313 UTC 05 Apr 2020
Potential Impact None Slight Moderate High
Time1251Z 05/14Z 05/15Z 05/16Z 05/17Z 05/18Z 05/19Z 05/20Z 05/21Z 05/22Z 05/23Z 06/00Z 06/01Z 06/02Z>>
Type OBS PRVL PRVL PRVL PRVL PRVL PRVL PRVL PRVL PRVL PRVL PRVL PRVL PRVL
VIS 8 >6 >6 >6 >6 >6 >6 >6 >6 >6 >6 >6 >6 >6
CIG 22 22 22 22 22 22 22 22 22 22 22 35 35 35
Cover OVC OVC OVC OVC OVC OVC OVC OVC OVC OVC OVC BKN BKN BKN
FltCat MVFR MVFR MVFR MVFR MVFR MVFR MVFR MVFR MVFR MVFR MVFR VFR VFR VFR
WX -- -- -- -- -- -- -- -- -- -- -- -- -- --
WDir 20 50 50 50 50 50 50 50 50 50 50 VRB VRB VRB
WSpd 5 5 5 5 5 5 5 5 5 5 5 4 4 4
WGst -- -- -- -- -- -- -- -- -- -- -- -- -- --
Raw TAF
KSTL 051131Z 0512/0618 VRB04KT P6SM OVC025
  FM051300 05005KT P6SM OVC022
  FM060000 VRB04KT P6SM BKN035
  FM061200 VRB04KT P6SM BKN022
  FM061600 18007KT P6SM BKN040


Raw METAR
KSTL 051251Z 02005KT 8SM OVC022 07/03 A3014 RMK AO2 SLP211 T00670028
KSTL 051151Z 01005KT 10SM SCT016 OVC027 06/03 A3013 RMK AO2 SLP207 70006 T00610028 10067 20061 53006
KSTL 051051Z 35004KT 10SM OVC027 07/03 A3012 RMK AO2 SLP202 T00670033

METAR Board
Radar Display
Forecast Discussion
For situational awareness. Not to be used for flight planning purposes.